createdAt,value
2019-06-07T00:00:57.582Z,5.30
2019-06-07T00:03:09.255Z,5.20
2019-06-07T00:05:13.245Z,4.90
2019-06-07T00:07:21.444Z,5.10
2019-06-07T00:09:22.966Z,4.67
2019-06-07T00:11:28.934Z,5.57
2019-06-07T00:13:32.683Z,5.73
2019-06-07T00:15:36.595Z,4.90
2019-06-07T00:17:40.752Z,5.50
2019-06-07T00:19:44.581Z,5.63
2019-06-07T00:23:54.029Z,5.83
2019-06-07T00:25:57.965Z,6.57
2019-06-07T00:28:01.875Z,5.87
2019-06-07T00:30:32.526Z,6.23
2019-06-07T00:32:14.992Z,5.30
2019-06-07T00:34:20.049Z,5.67
2019-06-07T00:36:23.873Z,5.27
2019-06-07T00:38:27.724Z,5.90
2019-06-07T00:40:32.321Z,6.13
2019-06-07T00:42:36.515Z,5.70
2019-06-07T00:44:40.295Z,6.03
2019-06-07T00:46:44.168Z,6.57
2019-06-07T00:48:48.274Z,5.90
2019-06-07T00:50:52.166Z,5.60
2019-06-07T00:53:14.858Z,6.70
2019-06-07T00:55:02.178Z,5.80
2019-06-07T00:57:05.957Z,6.17
2019-06-07T00:59:14.546Z,6.60
2019-06-07T01:01:19.099Z,5.77
2019-06-07T01:03:25.563Z,5.87
2019-06-07T01:05:31.449Z,6.17
2019-06-07T01:07:33.672Z,6.23
2019-06-07T01:09:37.622Z,6.30
2019-06-07T01:11:41.458Z,5.77
2019-06-07T01:13:45.355Z,6.07
2019-06-07T01:15:49.738Z,6.47
2019-06-07T01:18:33.130Z,6.40
2019-06-07T01:19:59.431Z,6.13
2019-06-07T01:22:03.262Z,6.17
2019-06-07T01:24:12.270Z,5.93
2019-06-07T01:26:12.901Z,6.47
2019-06-07T01:28:20.611Z,7.07
2019-06-07T01:30:26.677Z,6.27
2019-06-07T01:32:31.844Z,6.43
2019-06-07T01:34:35.868Z,6.07
2019-06-07T01:36:39.849Z,6.00
2019-06-07T01:38:43.728Z,6.43
2019-06-07T01:40:48.951Z,6.43
2019-06-07T01:42:52.763Z,6.53
2019-06-07T01:44:56.604Z,6.40
2019-06-07T01:47:00.599Z,6.30
2019-06-07T01:49:04.553Z,6.13
2019-06-07T01:51:08.331Z,5.93
2019-06-07T01:53:12.257Z,6.50
2019-06-07T01:55:18.801Z,6.53
2019-06-07T01:57:40.730Z,6.47
2019-06-07T01:59:31.365Z,6.50
2019-06-07T02:01:35.557Z,6.00
2019-06-07T02:03:39.539Z,6.60
2019-06-07T02:05:43.464Z,6.77
2019-06-07T02:07:47.404Z,7.20
2019-06-07T02:09:51.269Z,6.23
2019-06-07T02:11:55.176Z,6.50
2019-06-07T02:13:59.083Z,6.20
2019-06-07T02:16:03.211Z,6.23
2019-06-07T02:18:07.214Z,5.97
2019-06-07T02:20:11.344Z,6.17
2019-06-07T02:22:15.063Z,6.50
2019-06-07T02:24:21.300Z,6.23
2019-06-07T02:26:25.426Z,6.67
2019-06-07T02:28:44.369Z,6.43
2019-06-07T02:30:44.634Z,6.70
2019-06-07T02:32:41.180Z,7.20
2019-06-07T02:34:45.087Z,6.30
2019-06-07T02:36:48.972Z,6.63
2019-06-07T02:38:52.885Z,6.83
2019-06-07T02:40:56.835Z,6.27
2019-06-07T02:43:00.684Z,5.90
2019-06-07T02:45:05.642Z,6.30
2019-06-07T02:47:09.504Z,7.27
2019-06-07T02:49:19.333Z,6.50
2019-06-07T02:51:26.519Z,7.20
2019-06-07T02:53:30.796Z,7.27
2019-06-07T02:56:10.705Z,6.93
2019-06-07T02:57:42.120Z,7.13
2019-06-07T03:00:06.507Z,7.37
2019-06-07T03:01:54.323Z,6.87
2019-06-07T03:03:58.524Z,7.37
2019-06-07T03:06:03.294Z,7.20
2019-06-07T03:08:10.129Z,7.83
2019-06-07T03:10:14.894Z,6.47
2019-06-07T03:12:22.174Z,6.97
2019-06-07T03:14:28.601Z,7.30
2019-06-07T03:16:39.427Z,7.83
2019-06-07T03:19:05.889Z,6.93
2019-06-07T03:21:13.723Z,6.63
2019-06-07T03:23:18.364Z,7.43
2019-06-07T03:25:22.316Z,7.43
2019-06-07T03:27:36.117Z,7.77
2019-06-07T03:29:33.817Z,7.00
2019-06-07T03:31:43.377Z,7.00
2019-06-07T03:33:45.487Z,7.57
2019-06-07T03:35:48.321Z,7.27
2019-06-07T03:37:52.216Z,7.73
2019-06-07T03:39:56.132Z,6.87
2019-06-07T03:42:06.383Z,7.77
2019-06-07T03:44:05.994Z,7.57
2019-06-07T03:46:09.984Z,7.43
2019-06-07T03:48:13.828Z,8.20
2019-06-07T03:50:17.733Z,8.00
2019-06-07T03:52:22.639Z,7.77
2019-06-07T03:54:27.250Z,8.20
2019-06-07T03:56:31.882Z,7.03
2019-06-07T03:58:47.842Z,8.07
2019-06-07T04:00:43.402Z,7.77
2019-06-07T04:02:50.638Z,8.23
2019-06-07T04:04:54.439Z,7.50
2019-06-07T04:06:58.379Z,7.67
2019-06-07T04:09:02.355Z,7.57
2019-06-07T04:11:06.251Z,8.10
2019-06-07T04:13:10.139Z,7.40
2019-06-07T04:15:14.636Z,8.53
2019-06-07T04:17:18.534Z,8.00
2019-06-07T04:19:22.395Z,8.13
2019-06-07T04:21:26.319Z,8.23
2019-06-07T04:23:33.124Z,7.63
2019-06-07T04:25:39.511Z,8.47
2019-06-07T04:27:41.508Z,7.50
2019-06-07T04:30:05.664Z,7.37
2019-06-07T04:31:51.019Z,8.17
2019-06-07T04:33:54.942Z,8.53
2019-06-07T04:35:59.891Z,7.50
2019-06-07T04:38:03.764Z,7.37
2019-06-07T04:40:07.793Z,8.17
2019-06-07T04:42:13.190Z,7.80
2019-06-07T04:44:19.300Z,7.60
2019-06-07T04:46:24.416Z,6.63
2019-06-07T04:48:32.769Z,7.57
2019-06-07T04:50:40.325Z,7.10
2019-06-07T04:52:45.631Z,6.93
2019-06-07T04:54:48.480Z,7.00
2019-06-07T04:56:52.412Z,7.30
2019-06-07T04:58:56.636Z,7.47
2019-06-07T05:01:03.543Z,6.30
2019-06-07T05:03:06.974Z,7.27
2019-06-07T05:05:11.282Z,6.50
2019-06-07T05:07:15.204Z,6.03
2019-06-07T05:09:19.055Z,5.93
2019-06-07T05:11:22.940Z,5.37
2019-06-07T05:13:26.938Z,6.20
2019-06-07T05:15:32.054Z,5.30
2019-06-07T05:17:37.044Z,5.40
2019-06-07T05:19:44.578Z,4.80
2019-06-07T05:22:02.675Z,5.53
2019-06-07T05:24:06.612Z,5.47
2019-06-07T05:25:58.707Z,5.20
2019-06-07T05:28:02.624Z,4.50
2019-06-07T05:30:13.728Z,3.97
2019-06-07T05:32:15.388Z,4.80
2019-06-07T05:34:19.264Z,4.40
2019-06-07T05:36:23.223Z,5.03
2019-06-07T05:38:27.042Z,4.57
2019-06-07T05:40:38.733Z,4.50
2019-06-07T05:42:46.610Z,4.63
2019-06-07T05:44:49.075Z,4.60
2019-06-07T05:46:52.914Z,4.90
2019-06-07T05:48:56.795Z,5.07
2019-06-07T05:51:00.703Z,4.50
2019-06-07T05:53:05.590Z,4.80
2019-06-07T05:55:10.334Z,4.47
2019-06-07T05:57:14.221Z,4.87
2019-06-07T05:59:18.216Z,4.87
2019-06-07T06:01:45.004Z,4.57
2019-06-07T06:03:27.653Z,3.80
2019-06-07T06:05:36.334Z,5.10
2019-06-07T06:07:39.516Z,5.23
2019-06-07T06:09:43.823Z,5.03
2019-06-07T06:11:59.031Z,5.10
2019-06-07T06:14:06.526Z,4.90
2019-06-07T06:16:02.035Z,5.20
2019-06-07T06:18:05.442Z,5.60
2019-06-07T06:20:10.193Z,5.13
2019-06-07T06:22:13.991Z,5.70
2019-06-07T06:24:17.925Z,4.93
2019-06-07T06:26:21.860Z,5.03
2019-06-07T06:28:25.713Z,5.10
2019-06-07T06:30:29.682Z,4.83
2019-06-07T06:32:47.207Z,4.30
2019-06-07T06:34:42.954Z,4.87
2019-06-07T06:36:47.800Z,4.80
2019-06-07T06:38:51.549Z,5.23
2019-06-07T06:41:14.606Z,4.83
2019-06-07T06:43:01.295Z,4.80
2019-06-07T06:45:06.970Z,4.40
2019-06-07T06:47:10.882Z,4.80
2019-06-07T06:49:14.859Z,4.70
2019-06-07T06:51:18.711Z,4.53
2019-06-07T06:53:22.665Z,4.33
2019-06-07T06:55:29.187Z,4.87
2019-06-07T06:57:33.065Z,4.47
2019-06-07T06:59:40.842Z,4.57
2019-06-07T07:01:42.666Z,4.27
2019-06-07T07:04:09.631Z,4.10
2019-06-07T07:05:54.924Z,4.40
2019-06-07T07:07:59.219Z,4.63
2019-06-07T07:10:04.103Z,4.60
2019-06-07T07:12:12.751Z,4.83
2019-06-07T07:14:13.959Z,4.20
2019-06-07T07:16:17.833Z,4.33
2019-06-07T07:18:21.759Z,4.70
2019-06-07T07:20:25.782Z,4.77
2019-06-07T07:22:29.922Z,4.40
2019-06-07T07:24:33.861Z,4.40
2019-06-07T07:26:37.874Z,4.47
2019-06-07T07:28:43.019Z,4.55
2019-06-07T07:30:52.715Z,4.03
2019-06-07T07:32:59.279Z,4.03
2019-06-07T07:35:00.759Z,4.27
2019-06-07T07:37:05.844Z,4.60
2019-06-07T07:39:09.857Z,4.50
2019-06-07T07:41:15.451Z,3.80
2019-06-07T07:43:19.307Z,3.90
2019-06-07T07:45:23.167Z,4.20
2019-06-07T07:47:27.054Z,4.60
2019-06-07T07:49:31.010Z,4.17
2019-06-07T07:51:34.888Z,3.95
2019-06-07T07:53:50.619Z,4.72
2019-06-07T07:55:45.080Z,4.05
2019-06-07T07:57:58.138Z,4.50
2019-06-07T08:00:17.759Z,4.00
2019-06-07T08:02:01.375Z,4.72
2019-06-07T08:04:05.454Z,3.87
2019-06-07T08:06:09.430Z,3.35
2019-06-07T08:08:13.264Z,3.60
2019-06-07T08:10:19.022Z,4.78
2019-06-07T08:12:22.928Z,3.80
2019-06-07T08:14:26.826Z,3.50
2019-06-07T08:16:30.829Z,3.80
2019-06-07T08:18:34.728Z,4.10
2019-06-07T08:20:38.573Z,3.80
2019-06-07T08:22:42.521Z,3.40
2019-06-07T08:24:50.034Z,3.30
2019-06-07T08:27:13.054Z,4.10
2019-06-07T08:29:02.489Z,3.40
2019-06-07T08:31:07.384Z,2.98
2019-06-07T08:33:25.237Z,3.83
2019-06-07T08:36:02.393Z,3.77
2019-06-07T08:37:21.600Z,3.85
2019-06-07T08:39:25.349Z,4.28
2019-06-07T08:41:29.135Z,3.72
2019-06-07T08:43:32.944Z,3.95
2019-06-07T08:45:36.934Z,3.55
2019-06-07T08:47:40.764Z,4.00
2019-06-07T08:49:44.653Z,3.12
2019-06-07T08:51:48.600Z,3.33
2019-06-07T08:54:09.336Z,3.77
2019-06-07T08:56:05.813Z,3.65
2019-06-07T08:58:08.540Z,4.30
2019-06-07T09:00:42.595Z,3.85
2019-06-07T09:02:23.820Z,3.67
2019-06-07T09:04:22.436Z,3.70
2019-06-07T09:07:02.422Z,3.52
2019-06-07T09:08:31.883Z,3.47
2019-06-07T09:10:35.857Z,3.52
2019-06-07T09:12:39.894Z,4.03
2019-06-07T09:14:59.709Z,3.00
2019-06-07T09:16:49.484Z,3.87
2019-06-07T09:18:57.039Z,3.70
2019-06-07T09:21:01.219Z,4.03
2019-06-07T09:23:15.069Z,4.12
2019-06-07T09:25:20.714Z,3.80
2019-06-07T09:27:16.282Z,3.37
2019-06-07T09:29:20.436Z,3.70
2019-06-07T09:31:24.352Z,3.83
2019-06-07T09:33:28.135Z,3.50
2019-06-07T09:35:32.260Z,3.55
2019-06-07T09:38:04.161Z,3.27
2019-06-07T09:39:42.344Z,3.15
2019-06-07T09:41:49.863Z,3.67
2019-06-07T09:44:04.591Z,3.25
2019-06-07T09:45:58.833Z,3.52
2019-06-07T09:48:10.092Z,3.45
2019-06-07T09:50:12.007Z,3.22
2019-06-07T09:52:14.561Z,3.95
2019-06-07T09:56:24.076Z,3.02
2019-06-07T09:58:51.030Z,4.35
2019-06-07T10:00:40.949Z,3.90
2019-06-07T10:02:39.457Z,3.52
2019-06-07T10:04:43.331Z,3.22
2019-06-07T10:06:47.242Z,3.47
2019-06-07T10:10:56.679Z,3.20
2019-06-07T10:13:01.721Z,3.33
2019-06-07T10:15:07.045Z,3.00
2019-06-07T10:17:11.019Z,3.47
2019-06-07T10:19:14.941Z,3.00
2019-06-07T10:21:18.889Z,3.35
2019-06-07T10:23:22.782Z,3.35
2019-06-07T10:25:26.674Z,3.10
2019-06-07T10:27:30.627Z,2.98
2019-06-07T10:29:34.480Z,2.83
2019-06-07T10:31:38.481Z,3.15
2019-06-07T10:33:42.428Z,3.15
2019-06-07T10:35:46.272Z,2.87
2019-06-07T10:37:50.083Z,3.00
2019-06-07T10:39:54.107Z,3.10
2019-06-07T10:41:58.096Z,3.10
2019-06-07T10:44:03.225Z,3.10
2019-06-07T10:46:07.634Z,2.77
2019-06-07T10:48:11.829Z,3.27
2019-06-07T10:50:16.204Z,2.77
2019-06-07T10:52:20.065Z,2.70
2019-06-07T10:54:28.170Z,3.22
2019-06-07T10:56:29.520Z,2.75
2019-06-07T10:58:34.331Z,2.67
2019-06-07T11:00:38.346Z,3.15
2019-06-07T11:02:42.293Z,2.70
2019-06-07T11:04:46.207Z,2.87
2019-06-07T11:06:50.141Z,2.70
2019-06-07T11:08:54.008Z,3.15
2019-06-07T11:10:57.860Z,2.72
2019-06-07T11:13:01.794Z,5.87
2019-06-07T11:15:06.714Z,2.80
2019-06-07T11:17:11.330Z,2.42
2019-06-07T11:19:17.905Z,2.50
2019-06-07T11:21:21.114Z,2.30
2019-06-07T11:23:24.998Z,2.55
2019-06-07T11:25:28.895Z,2.50
2019-06-07T11:27:32.861Z,2.30
2019-06-07T11:29:36.715Z,2.45
2019-06-07T11:31:40.601Z,2.77
2019-06-07T11:33:44.618Z,2.37
2019-06-07T11:35:48.501Z,2.33
2019-06-07T11:37:52.479Z,2.67
2019-06-07T11:39:56.452Z,2.25
2019-06-07T11:42:00.329Z,2.10
2019-06-07T11:44:04.663Z,2.33
2019-06-07T11:46:08.847Z,2.15
2019-06-07T11:48:13.469Z,2.50
2019-06-07T11:50:17.681Z,2.55
2019-06-07T11:52:21.479Z,2.20
2019-06-07T11:54:25.433Z,2.20
2019-06-07T11:56:29.818Z,2.80
2019-06-07T11:58:33.646Z,2.22
2019-06-07T12:00:37.594Z,2.20
2019-06-07T12:02:41.521Z,2.60
2019-06-07T12:04:45.271Z,2.17
2019-06-07T12:06:49.150Z,2.22
2019-06-07T12:08:52.947Z,1.90
2019-06-07T12:10:56.844Z,2.25
2019-06-07T12:13:00.757Z,2.20
2019-06-07T12:15:05.908Z,2.22
2019-06-07T12:17:11.172Z,2.02
2019-06-07T12:19:15.564Z,2.60
2019-06-07T12:21:19.914Z,2.67
2019-06-07T12:23:23.953Z,2.25
2019-06-07T12:25:27.920Z,2.10
2019-06-07T12:27:31.780Z,2.40
2019-06-07T12:29:35.647Z,2.70
2019-06-07T12:31:39.588Z,2.70
2019-06-07T12:33:43.508Z,2.40
2019-06-07T12:35:47.369Z,2.33
2019-06-07T12:37:51.268Z,2.30
2019-06-07T12:39:55.212Z,2.65
2019-06-07T12:41:59.185Z,2.35
2019-06-07T12:44:03.230Z,2.37
2019-06-07T12:46:07.109Z,2.42
2019-06-07T12:48:11.072Z,2.55
2019-06-07T12:50:15.550Z,2.10
2019-06-07T12:52:21.032Z,2.30
2019-06-07T12:54:25.082Z,2.35
2019-06-07T12:56:28.884Z,2.47
2019-06-07T12:58:36.119Z,2.50
2019-06-07T13:00:38.495Z,2.67
2019-06-07T13:02:42.502Z,2.20
2019-06-07T13:04:46.604Z,2.27
2019-06-07T13:06:50.432Z,2.60
2019-06-07T13:08:54.354Z,2.40
2019-06-07T13:11:14.270Z,2.30
2019-06-07T13:13:03.978Z,2.22
2019-06-07T13:15:08.088Z,2.67
2019-06-07T13:17:12.034Z,2.70
2019-06-07T13:19:16.402Z,2.47
2019-06-07T13:21:20.353Z,2.50
2019-06-07T13:23:24.431Z,3.20
2019-06-07T13:25:44.116Z,3.10
2019-06-07T13:27:34.133Z,2.60
2019-06-07T13:29:37.904Z,2.85
2019-06-07T13:31:41.818Z,2.58
2019-06-07T13:33:45.721Z,2.75
2019-06-07T13:35:49.650Z,2.72
2019-06-07T13:37:53.590Z,2.87
2019-06-07T13:39:57.440Z,2.67
2019-06-07T13:42:01.330Z,3.15
2019-06-07T13:44:05.301Z,2.52
2019-06-07T13:46:12.891Z,3.05
2019-06-07T13:48:14.681Z,3.37
2019-06-07T13:50:19.594Z,2.87
2019-06-07T13:52:23.496Z,3.25
2019-06-07T13:54:27.825Z,2.98
2019-06-07T13:56:31.868Z,2.77
2019-06-07T13:58:35.728Z,3.00
2019-06-07T14:00:39.544Z,2.70
2019-06-07T14:02:43.461Z,2.58
2019-06-07T14:04:47.330Z,2.65
2019-06-07T14:06:51.073Z,2.83
2019-06-07T14:08:54.936Z,2.80
2019-06-07T14:10:58.841Z,2.90
2019-06-07T14:13:03.075Z,2.80
2019-06-07T14:15:07.988Z,2.77
2019-06-07T14:17:11.770Z,2.90
2019-06-07T14:19:15.698Z,2.50
2019-06-07T14:21:20.392Z,2.70
2019-06-07T14:23:42.345Z,2.55
2019-06-07T14:25:31.321Z,3.00
2019-06-07T14:27:35.233Z,3.05
2019-06-07T14:29:39.343Z,3.25
2019-06-07T14:31:43.208Z,2.50
2019-06-07T14:33:47.145Z,3.62
2019-06-07T14:35:51.033Z,2.58
2019-06-07T14:37:54.945Z,2.70
2019-06-07T14:39:58.887Z,2.87
2019-06-07T14:42:08.956Z,2.80
2019-06-07T14:44:08.289Z,2.77
2019-06-07T14:46:12.224Z,3.10
2019-06-07T14:48:16.097Z,2.80
2019-06-07T14:50:20.466Z,2.87
2019-06-07T14:52:24.435Z,2.90
2019-06-07T14:54:32.273Z,3.15
2019-06-07T14:56:35.217Z,2.70
2019-06-07T14:58:43.283Z,2.87
2019-06-07T15:00:45.212Z,2.90
2019-06-07T15:02:48.986Z,3.27
2019-06-07T15:04:54.501Z,2.80
2019-06-07T15:06:58.296Z,3.22
2019-06-07T15:09:02.091Z,2.90
2019-06-07T15:11:06.016Z,2.98
2019-06-07T15:13:10.002Z,2.90
2019-06-07T15:15:13.878Z,2.85
2019-06-07T15:17:17.720Z,2.90
2019-06-07T15:19:23.999Z,2.85
2019-06-07T15:21:27.226Z,2.72
2019-06-07T15:23:31.193Z,2.83
2019-06-07T15:25:35.535Z,2.52
2019-06-07T15:27:39.504Z,3.00
2019-06-07T15:29:43.438Z,2.83
2019-06-07T15:31:47.313Z,2.75
2019-06-07T15:33:51.203Z,2.70
2019-06-07T15:35:55.109Z,2.85
2019-06-07T15:37:59.014Z,2.65
2019-06-07T15:40:03.056Z,2.70
2019-06-07T15:42:06.906Z,3.10
2019-06-07T15:44:10.802Z,2.95
2019-06-07T15:46:14.622Z,3.00
2019-06-07T15:48:18.540Z,2.98
2019-06-07T15:50:22.576Z,2.98
2019-06-07T15:52:26.414Z,3.30
2019-06-07T15:54:30.380Z,2.58
2019-06-07T15:56:34.673Z,2.77
2019-06-07T15:58:39.403Z,2.62
2019-06-07T16:00:43.401Z,2.65
2019-06-07T16:02:47.287Z,2.75
2019-06-07T16:04:51.192Z,2.55
2019-06-07T16:06:55.113Z,2.55
2019-06-07T16:08:59.042Z,2.52
2019-06-07T16:11:02.965Z,3.20
2019-06-07T16:13:06.823Z,2.62
2019-06-07T16:15:13.469Z,2.83
2019-06-07T16:17:18.410Z,2.72
2019-06-07T16:19:22.232Z,2.60
2019-06-07T16:21:26.126Z,2.50
2019-06-07T16:23:30.049Z,3.22
2019-06-07T16:25:34.036Z,2.95
2019-06-07T16:27:38.661Z,2.80
2019-06-07T16:29:43.017Z,2.72
2019-06-07T16:31:46.883Z,2.65
2019-06-07T16:33:50.850Z,2.80
2019-06-07T16:35:54.675Z,2.85
2019-06-07T16:37:58.586Z,2.70
2019-06-07T16:40:02.553Z,2.72
2019-06-07T16:42:06.553Z,3.02
2019-06-07T16:44:10.301Z,2.80
2019-06-07T16:46:14.308Z,2.85
2019-06-07T16:48:18.110Z,2.75
2019-06-07T16:50:22.154Z,2.72
2019-06-07T16:52:25.929Z,3.02
2019-06-07T16:54:29.901Z,3.42
2019-06-07T16:56:33.786Z,3.17
2019-06-07T16:58:37.942Z,3.02
2019-06-07T17:00:42.237Z,2.58
2019-06-07T17:02:47.430Z,2.70
2019-06-07T17:04:52.027Z,2.95
2019-06-07T17:06:55.927Z,2.77
2019-06-07T17:08:59.693Z,2.85
2019-06-07T17:11:03.589Z,3.02
2019-06-07T17:13:07.488Z,2.80
2019-06-07T17:15:12.184Z,2.85
2019-06-07T17:17:16.050Z,2.90
2019-06-07T17:19:20.018Z,3.20
2019-06-07T17:21:23.856Z,2.85
2019-06-07T17:23:27.931Z,3.12
2019-06-07T17:25:31.950Z,2.90
2019-06-07T17:27:35.893Z,3.10
2019-06-07T17:29:39.819Z,3.10
2019-06-07T17:31:44.761Z,4.03
2019-06-07T17:33:50.059Z,8.10
2019-06-07T17:35:54.133Z,4.05
2019-06-07T17:37:58.114Z,8.58
2019-06-07T17:40:01.938Z,2.87
2019-06-07T17:42:05.910Z,3.52
2019-06-07T17:44:09.774Z,3.00
2019-06-07T17:46:13.751Z,3.10
2019-06-07T17:48:17.803Z,2.47
2019-06-07T17:50:22.442Z,2.87
2019-06-07T17:52:28.178Z,2.60
2019-06-07T17:54:32.067Z,3.20
2019-06-07T17:56:36.029Z,2.75
2019-06-07T17:58:39.900Z,2.83
2019-06-07T18:00:49.329Z,2.55
2019-06-07T18:02:53.209Z,2.98
2019-06-07T18:04:57.099Z,3.17
2019-06-07T18:07:01.262Z,2.80
2019-06-07T18:09:07.218Z,2.37
2019-06-07T18:11:11.271Z,2.72
2019-06-07T18:13:15.370Z,3.17
2019-06-07T18:15:22.658Z,3.05
2019-06-07T18:17:34.521Z,2.52
2019-06-07T18:19:32.089Z,2.90
2019-06-07T18:21:35.913Z,3.20
2019-06-07T18:23:39.936Z,3.15
2019-06-07T18:25:43.810Z,3.00
2019-06-07T18:27:48.510Z,2.92
2019-06-07T18:29:52.731Z,2.67
2019-06-07T18:31:56.688Z,3.27
2019-06-07T18:34:00.648Z,2.58
2019-06-07T18:36:04.915Z,2.87
2019-06-07T18:38:10.940Z,3.02
2019-06-07T18:40:14.417Z,2.80
2019-06-07T18:42:18.314Z,2.52
2019-06-07T18:44:22.163Z,3.15
2019-06-07T18:46:26.046Z,3.15
2019-06-07T18:48:30.052Z,2.95
2019-06-07T18:50:33.924Z,3.65
2019-06-07T18:52:39.066Z,2.95
2019-06-07T18:54:43.106Z,3.22
2019-06-07T18:56:47.107Z,3.50
2019-06-07T18:58:51.097Z,3.12
2019-06-07T19:00:55.539Z,3.12
2019-06-07T19:02:59.342Z,2.87
2019-06-07T19:05:03.428Z,3.15
2019-06-07T19:07:07.355Z,3.20
2019-06-07T19:09:11.273Z,3.85
2019-06-07T19:11:15.172Z,2.87
2019-06-07T19:13:19.105Z,3.35
2019-06-07T19:15:24.408Z,2.87
2019-06-07T19:17:28.340Z,3.60
2019-06-07T19:19:32.220Z,3.70
2019-06-07T19:21:36.146Z,3.12
2019-06-07T19:23:40.039Z,3.27
2019-06-07T19:25:43.946Z,3.15
2019-06-07T19:27:47.907Z,3.37
2019-06-07T19:29:52.741Z,3.62
2019-06-07T19:31:57.033Z,7.90
2019-06-07T19:34:01.370Z,4.58
2019-06-07T19:36:05.367Z,3.70
2019-06-07T19:38:10.045Z,3.50
2019-06-07T19:40:14.776Z,3.90
2019-06-07T19:42:18.664Z,4.25
2019-06-07T19:44:22.637Z,4.85
2019-06-07T19:46:26.452Z,4.00
2019-06-07T19:48:30.390Z,3.65
2019-06-07T19:50:34.649Z,3.92
2019-06-07T19:52:38.667Z,3.17
2019-06-07T19:54:42.774Z,3.20
2019-06-07T19:56:46.610Z,3.08
2019-06-07T19:58:50.583Z,3.20
2019-06-07T20:00:55.531Z,2.02
2019-06-07T20:02:59.924Z,2.05
2019-06-07T20:05:06.792Z,1.85
2019-06-07T20:07:09.667Z,1.57
2019-06-07T20:09:13.494Z,1.42
2019-06-07T20:11:17.386Z,1.12
2019-06-07T20:13:21.307Z,1.35
2019-06-07T20:15:29.187Z,1.45
2019-06-07T20:17:30.739Z,1.00
2019-06-07T20:19:34.680Z,0.82
2019-06-07T20:21:38.576Z,1.17
2019-06-07T20:23:42.501Z,0.90
2019-06-07T20:25:46.460Z,1.00
2019-06-07T20:27:50.275Z,0.72
2019-06-07T20:29:54.172Z,0.70
2019-06-07T20:31:58.287Z,0.60
2019-06-07T20:34:04.205Z,0.60
2019-06-07T20:36:08.986Z,0.57
2019-06-07T20:38:13.144Z,0.80
2019-06-07T20:40:24.111Z,0.70
2019-06-07T20:42:22.967Z,0.80
2019-06-07T20:44:26.871Z,0.60
2019-06-07T20:46:30.748Z,0.70
2019-06-07T20:48:35.120Z,0.60
2019-06-07T20:50:39.072Z,0.72
2019-06-07T20:52:42.884Z,0.42
2019-06-07T20:54:46.835Z,0.60
2019-06-07T20:56:50.823Z,0.70
2019-06-07T20:58:54.615Z,0.60
2019-06-07T21:00:58.642Z,0.82
2019-06-07T21:03:03.288Z,0.45
2019-06-07T21:05:07.795Z,0.45
2019-06-07T21:07:11.647Z,0.65
2019-06-07T21:09:15.620Z,0.62
2019-06-07T21:11:19.413Z,0.78
2019-06-07T21:13:23.415Z,0.40
2019-06-07T21:15:27.340Z,0.53
2019-06-07T21:17:31.342Z,0.60
2019-06-07T21:19:35.344Z,0.30
2019-06-07T21:21:39.147Z,0.75
2019-06-07T21:23:43.128Z,0.50
2019-06-07T21:25:47.377Z,0.62
2019-06-07T21:27:51.299Z,0.60
2019-06-07T21:29:55.210Z,0.33
2019-06-07T21:31:59.109Z,0.50
2019-06-07T21:34:03.749Z,0.40
2019-06-07T21:36:11.863Z,0.40
2019-06-07T21:38:15.785Z,0.42
2019-06-07T21:40:19.998Z,0.60
2019-06-07T21:42:24.439Z,0.50
2019-06-07T21:44:28.250Z,0.42
2019-06-07T21:46:32.159Z,0.68
2019-06-07T21:48:36.053Z,1.00
2019-06-07T21:50:39.952Z,1.02
2019-06-07T21:52:43.843Z,0.70
2019-06-07T21:54:47.778Z,0.85
2019-06-07T21:56:51.647Z,0.60
2019-06-07T21:58:55.551Z,0.57
2019-06-07T22:01:16.288Z,0.60
2019-06-07T22:03:20.228Z,0.60
2019-06-07T22:05:24.079Z,0.72
2019-06-07T22:07:27.982Z,0.78
2019-06-07T22:09:31.887Z,0.53
2019-06-07T22:11:35.671Z,0.62
2019-06-07T22:13:39.494Z,0.60
2019-06-07T22:15:44.459Z,0.72
2019-06-07T22:17:48.334Z,0.78
2019-06-07T22:19:52.231Z,0.53
2019-06-07T22:22:02.672Z,0.90
2019-06-07T22:24:01.677Z,0.80
2019-06-07T22:26:06.993Z,0.70
2019-06-07T22:28:12.536Z,0.68
2019-06-07T22:30:16.826Z,0.90
2019-06-07T22:32:20.763Z,0.78
2019-06-07T22:34:24.704Z,0.68
2019-06-07T22:36:28.602Z,0.50
2019-06-07T22:38:32.599Z,0.72
2019-06-07T22:40:36.469Z,0.65
2019-06-07T22:42:40.356Z,0.55
2019-06-07T22:44:44.200Z,0.40
2019-06-07T22:46:48.191Z,0.40
2019-06-07T22:48:52.080Z,0.80
2019-06-07T22:50:57.026Z,0.40
2019-06-07T22:53:00.849Z,0.60
2019-06-07T22:55:05.204Z,0.60
2019-06-07T22:57:16.645Z,0.57
2019-06-07T22:59:20.725Z,0.57
2019-06-07T23:01:24.537Z,1.98
2019-06-07T23:03:28.359Z,1.02
2019-06-07T23:05:32.275Z,1.00
2019-06-07T23:07:36.163Z,0.70
2019-06-07T23:09:40.092Z,0.80
2019-06-07T23:11:44.039Z,0.90
2019-06-07T23:13:47.854Z,0.70
2019-06-07T23:15:51.785Z,0.70
2019-06-07T23:17:55.826Z,0.70
2019-06-07T23:20:01.862Z,0.80
2019-06-07T23:22:05.836Z,1.02
2019-06-07T23:24:09.834Z,0.70
2019-06-07T23:26:14.153Z,0.95
2019-06-07T23:28:18.770Z,0.80
2019-06-07T23:30:24.114Z,1.00
2019-06-07T23:32:28.037Z,0.80
2019-06-07T23:34:31.831Z,1.27
2019-06-07T23:36:35.883Z,0.70
2019-06-07T23:38:39.658Z,0.70
2019-06-07T23:40:43.691Z,0.90
2019-06-07T23:42:48.675Z,0.60
2019-06-07T23:44:52.581Z,0.80
2019-06-07T23:47:10.408Z,0.70
2019-06-07T23:49:02.047Z,0.78
2019-06-07T23:51:06.020Z,0.77
2019-06-07T23:53:09.907Z,1.03
2019-06-07T23:55:13.951Z,0.60
2019-06-07T23:57:19.201Z,1.10
2019-06-07T23:59:23.421Z,0.80
